Impacts TAF Board
For situational awareness. Not to be used for flight planning purposes.
IDs:

KSFB - Sanford Intl, FL, US

Issued at 1817 UTC 30 Jun 2022
Updated at 2325 UTC 30 Jun 2022
Potential Impact None Slight Moderate High
Time2253Z 01/00Z 01/01Z 01/02Z 01/03Z 01/04Z 01/05Z 01/06Z 01/07Z 01/08Z 01/09Z 01/10Z 01/11Z 01/12Z>>
Type OBS PRVL PRVL PRVL PRVL PRVL PRVL PRVL PRVL PRVL PRVL PRVL PRVL PRVL
VIS 10 >6 >6 >6 >6 >6 >6 >6 >6 >6 >6 >6 >6 >6
CIG 110 50 50 50 50 140 140 140 140 140 140 140 140 140
Cover BKN OVC OVC OVC OVC BKN BKN BKN BKN BKN BKN BKN BKN BKN
FltCat VFR VFR VFR VFR VFR VFR VFR VFR VFR VFR VFR VFR VFR VFR
WX -RA VCSH VCSH VCSH VCSH -- -- -- -- -- -- -- -- --
WDir 110 120 120 120 120 160 160 160 160 160 160 160 160 160
WSpd 7 6 6 6 6 4 4 4 4 4 4 4 4 4
WGst -- -- -- -- -- -- -- -- -- -- -- -- -- --
WSHgt -- -- -- -- -- -- -- -- -- -- -- -- -- --
WSDir -- -- -- -- -- -- -- -- -- -- -- -- -- --
WSSpd -- -- -- -- -- -- -- -- -- -- -- -- -- --
Raw TAF
KSFB 301817Z 3018/0118 10007KT P6SM VCTS SCT035CB BKN060 OVC120
  TEMPO 3018/3021 09010G18KT 3SM TSRA BKN030CB
  FM010000 12006KT P6SM VCSH FEW030 BKN050 OVC080
  FM010400 16004KT P6SM SCT080 BKN140
  FM011400 16006KT P6SM SCT035 SCT080 BKN200


Raw METAR
KSFB 302253Z 11007KT 10SM -RA BKN110 24/22 A3008 RMK AO2 LTG DSNT NE AND SE RAB23 SLP184 P0001 T02390222
KSFB 302153Z 09004KT 10SM CLR 25/22 A3009 RMK AO2 LTG DSNT NE AND E SLP187 T02500222
KSFB 302127Z 05006KT 10SM SCT033 SCT042 BKN055 26/22 A3008 RMK AO2 LTG DSNT NE AND E T02560222
KSFB 302053Z VRB03KT 10SM VCTS BKN033 26/22 A3011 RMK AO2 LTG DSNT N-E RAE32 SLP194 P0001 60004 T02610222 53005

METAR Board
Radar Display
Forecast Discussion
For situational awareness. Not to be used for flight planning purposes.